LFJL/ETZ METAR and TAF weather

Enter ICAO airport designator
Station Type Date Time Source
LFJL METAR 2019/06/27 10:00 UTC NOAA

LFJL 271000Z AUTO 05009KT 010V090 CAVOK 30/19 Q1024 NOSIG


Station Type Date Time Source
LFJL Decoded METAR 2019/06/27 10:00 UTC NOAA

Metz-Nancy-Lorraine, France (LFJL) 48-59N 006-15E
Jun 27, 2019 - 06:00 AM EDT / 2019.06.27 1000 UTC
Wind: from the NE (050 degrees) at 10 MPH (9 KT) (direction variable):0
Visibility: greater than 7 mile(s):0
Temperature: 86 F (30 C)
Dew Point: 66 F (19 C)
Relative Humidity: 51%
Pressure (altimeter): 30.24 in. Hg (1024 hPa)
ob: LFJL 271000Z AUTO 05009KT 010V090 CAVOK 30/19 Q1024 NOSIG
cycle: 10

Station Type Date Time Source
LFJL TAF 2019/06/27 06:21 UTC NOAA

TAF LFJL 270500Z 2706/2806 03008KT CAVOK

Example: see airport list